Time;durP1;ratioP1;P1;durP2;ratioP2;P2;SDS_P1;SDS_P2;PMS_P1;PMS_P2;Temp;Humidity;BMP_temperature;BMP_pressure;BME280_temperature;BME280_humidity;BME280_pressure;Samples;Min_cycle;Max_cycle;Signal;HPM_P1;HPM_P2
2023/10/05 00:01:24;;;;;;;;;;;;;;;11.53;65.16;98933.03;5090189;28;19931;-63
2023/10/05 00:04:15;;;;;;;;;;;;;;;11.55;64.81;98933.53;5100911;28;20011;-64
2023/10/05 00:07:05;;;;;;;;;;;;;;;11.47;65.21;98935.00;5096901;28;20022;-63
2023/10/05 00:09:55;;;;;;;;;;;;;;;11.43;65.08;98936.69;5103877;28;20778;-63
2023/10/05 00:12:47;;;;;;;;;;;;;;;11.46;64.95;98930.69;5104199;28;19923;-63
2023/10/05 00:15:36;;;;;;;;;;;;;;;11.51;65.00;98921.63;5107523;28;19931;-63
2023/10/05 00:18:26;;;;;;;;;;;;;;;11.50;64.89;98928.16;5109253;28;19928;-64
2023/10/05 00:21:18;;;;;;;;;;;;;;;11.50;64.85;98926.28;5108985;28;19928;-63
2023/10/05 00:24:07;;;;;;;;;;;;;;;11.49;64.66;98927.34;5099255;28;20026;-63
2023/10/05 00:26:56;;;;;;;;;;;;;;;11.48;64.75;98916.78;5098193;28;19947;-63
2023/10/05 00:29:47;;;;;;;;;;;;;;;11.45;64.75;98911.91;5102397;28;19932;-63
2023/10/05 00:32:38;;;;;;;;;;;;;;;11.45;64.48;98917.34;5103947;28;19924;-63
2023/10/05 00:35:29;;;;;;;;;;;;;;;11.39;64.87;98913.06;5109635;28;20405;-63
2023/10/05 00:38:18;;;;;;;;;;;;;;;11.37;64.67;98913.38;5106136;28;19928;-63
2023/10/05 00:41:08;;;;;;;;;;;;;;;11.39;64.64;98915.78;5117853;27;19931;-63
2023/10/05 00:43:56;;;;;;;;;;;;;;;11.32;65.01;98915.34;5090725;27;20355;-63
2023/10/05 00:46:48;;;;;;;;;;;;;;;11.10;65.18;98924.06;5122624;27;19954;-63
2023/10/05 00:49:45;;;;;;;;;;;;;;;10.87;66.18;98921.03;5114108;27;19930;-63
2023/10/05 00:52:35;;;;;;;;;;;;;;;10.90;66.24;98925.06;5083441;28;20432;-63
2023/10/05 00:55:23;;;;;;;;;;;;;;;10.97;65.91;98926.38;5104111;27;20018;-65
2023/10/05 00:58:14;;;;;;;;;;;;;;;10.97;65.96;98931.81;5094391;27;19923;-63
2023/10/05 01:01:07;;;;;;;;;;;;;;;11.05;65.61;98927.63;5100600;28;20006;-63
2023/10/05 01:07:17;;;;;;;;;;;;;;;11.07;65.65;98930.84;5110892;27;20018;-63
2023/10/05 01:10:29;;;;;;;;;;;;;;;11.06;65.67;98942.03;5086733;27;19930;-63
2023/10/05 01:13:33;;;;;;;;;;;;;;;10.99;65.60;98934.22;5099907;27;20001;-63
2023/10/05 01:16:22;;;;;;;;;;;;;;;10.99;65.71;98934.22;5107624;27;20397;-63
2023/10/05 01:19:10;;;;;;;;;;;;;;;11.02;65.62;98929.03;5102388;27;20002;-63
2023/10/05 01:21:59;;;;;;;;;;;;;;;10.93;65.22;98936.19;5117264;27;20030;-63
2023/10/05 01:24:49;;;;;;;;;;;;;;;10.98;65.07;98936.16;5103519;27;19923;-63
2023/10/05 01:27:40;;;;;;;;;;;;;;;10.96;65.18;98935.59;5109429;27;19924;-63
2023/10/05 01:30:28;;;;;;;;;;;;;;;10.98;64.90;98932.63;5108875;27;20595;-63
2023/10/05 01:33:17;;;;;;;;;;;;;;;10.95;64.79;98925.03;5121849;27;20312;-63
2023/10/05 01:36:06;;;;;;;;;;;;;;;10.93;64.84;98922.59;5095699;27;20385;-63
2023/10/05 01:39:00;;;;;;;;;;;;;;;10.93;64.80;98913.63;5104014;28;20906;-63
2023/10/05 01:41:49;;;;;;;;;;;;;;;10.82;64.90;98912.94;5105579;28;19985;-63
2023/10/05 01:44:40;;;;;;;;;;;;;;;10.78;65.08;98898.31;5110133;27;20301;-63
2023/10/05 01:47:30;;;;;;;;;;;;;;;10.80;64.89;98896.09;5130303;27;19928;-63
2023/10/05 01:50:19;;;;;;;;;;;;;;;10.79;65.03;98897.19;5113749;27;20010;-63
2023/10/05 01:53:08;;;;;;;;;;;;;;;10.79;64.78;98890.94;5112603;27;20357;-63
2023/10/05 01:55:59;;;;;;;;;;;;;;;10.82;64.70;98901.25;5111735;27;19923;-64
2023/10/05 01:58:50;;;;;;;;;;;;;;;10.74;65.05;98898.06;5091203;28;19935;-63
2023/10/05 02:01:40;;;;;;;;;;;;;;;10.75;65.10;98885.28;5100336;27;20421;-63
2023/10/05 02:04:29;;;;;;;;;;;;;;;10.72;65.10;98889.38;5099928;27;19924;-63
2023/10/05 02:07:19;;;;;;;;;;;;;;;10.72;64.98;98885.88;5103428;27;19984;-63
2023/10/05 02:10:10;;;;;;;;;;;;;;;10.70;65.07;98877.16;5097872;27;19967;-63
2023/10/05 02:13:01;;;;;;;;;;;;;;;10.67;65.07;98880.47;5110096;27;19923;-63
2023/10/05 02:15:55;;;;;;;;;;;;;;;10.61;65.50;98877.00;5100833;27;19942;-63
2023/10/05 02:18:43;;;;;;;;;;;;;;;10.56;65.60;98871.63;5099554;28;19939;-63
2023/10/05 02:21:36;;;;;;;;;;;;;;;10.60;65.50;98866.41;5079673;27;19924;-63
2023/10/05 02:24:25;;;;;;;;;;;;;;;10.57;65.62;98867.81;5110138;27;19938;-63
2023/10/05 02:27:14;;;;;;;;;;;;;;;10.60;65.62;98872.69;5092988;27;19972;-63
2023/10/05 02:30:08;;;;;;;;;;;;;;;10.69;65.83;98876.38;5107741;27;19924;-63
2023/10/05 02:32:58;;;;;;;;;;;;;;;10.68;65.42;98865.78;5101148;27;19980;-63
2023/10/05 02:35:48;;;;;;;;;;;;;;;10.72;65.31;98875.00;5117953;27;19924;-63
2023/10/05 02:38:37;;;;;;;;;;;;;;;10.74;65.10;98867.34;5105839;27;19943;-63
2023/10/05 02:41:37;;;;;;;;;;;;;;;10.70;65.15;98874.44;5098107;28;19928;-63
2023/10/05 02:44:30;;;;;;;;;;;;;;;10.62;65.45;98875.91;5122182;27;19931;-63
2023/10/05 02:47:23;;;;;;;;;;;;;;;10.62;65.66;98875.09;5109455;28;19959;-63
2023/10/05 02:50:13;;;;;;;;;;;;;;;10.54;65.76;98875.72;5087905;27;20480;-63
2023/10/05 02:53:06;;;;;;;;;;;;;;;10.53;65.63;98876.81;5114788;27;19931;-63
2023/10/05 02:55:54;;;;;;;;;;;;;;;10.47;65.92;98868.72;5098243;27;19973;-63
2023/10/05 02:58:43;;;;;;;;;;;;;;;10.52;66.11;98864.34;5127464;27;19962;-63
2023/10/05 03:01:33;;;;;;;;;;;;;;;10.57;65.77;98867.00;5088442;28;19931;-63
2023/10/05 03:04:22;;;;;;;;;;;;;;;10.59;65.77;98871.03;5110775;27;20018;-63
2023/10/05 03:07:14;;;;;;;;;;;;;;;10.53;65.74;98865.94;5117194;27;20316;-63
2023/10/05 03:10:02;;;;;;;;;;;;;;;10.53;65.83;98860.50;5094294;27;19932;-63
2023/10/05 03:12:56;;;;;;;;;;;;;;;10.55;65.90;98855.63;5089118;28;20018;-63
2023/10/05 03:15:44;;;;;;;;;;;;;;;10.49;65.99;98855.69;5105238;27;19924;-63
2023/10/05 03:18:32;;;;;;;;;;;;;;;10.54;65.97;98856.69;5096395;27;20289;-63
2023/10/05 03:21:21;;;;;;;;;;;;;;;10.55;65.90;98858.34;5100920;27;19923;-63
2023/10/05 03:24:13;;;;;;;;;;;;;;;10.60;65.74;98860.97;5099124;28;20448;-63
2023/10/05 03:27:05;;;;;;;;;;;;;;;10.57;65.79;98869.72;5101960;28;20068;-63
2023/10/05 03:29:58;;;;;;;;;;;;;;;10.53;65.70;98864.03;5096040;28;19923;-63
2023/10/05 03:32:50;;;;;;;;;;;;;;;10.46;66.07;98867.09;5093908;28;20447;-63
2023/10/05 03:35:45;;;;;;;;;;;;;;;10.41;66.23;98869.88;5087972;28;20049;-63
2023/10/05 03:38:34;;;;;;;;;;;;;;;10.44;66.36;98868.50;5097586;28;19928;-63
2023/10/05 03:41:27;;;;;;;;;;;;;;;10.40;66.48;98862.00;5085902;28;20057;-63
2023/10/05 03:44:16;;;;;;;;;;;;;;;10.39;66.42;98866.63;5097623;28;19930;-63
2023/10/05 03:47:05;;;;;;;;;;;;;;;10.40;66.58;98860.09;5117472;28;19928;-63
2023/10/05 03:49:56;;;;;;;;;;;;;;;10.38;66.52;98866.91;5104692;28;20396;-63
2023/10/05 03:52:46;;;;;;;;;;;;;;;10.38;66.34;98859.56;5091884;28;19928;-63
2023/10/05 03:55:38;;;;;;;;;;;;;;;10.44;66.03;98863.88;5114000;28;20040;-63
2023/10/05 03:58:27;;;;;;;;;;;;;;;10.29;66.26;98872.16;5103105;28;20101;-63
2023/10/05 04:01:15;;;;;;;;;;;;;;;10.27;66.62;98871.63;5098647;28;19924;-63
2023/10/05 04:04:08;;;;;;;;;;;;;;;10.18;66.96;98874.13;5104443;28;19924;-63
2023/10/05 04:06:57;;;;;;;;;;;;;;;10.11;67.05;98880.97;5111548;28;20049;-63
2023/10/05 04:09:47;;;;;;;;;;;;;;;9.95;67.88;98877.56;5097692;28;19928;-63
2023/10/05 04:12:37;;;;;;;;;;;;;;;9.73;68.54;98882.63;5094286;28;19976;-63
2023/10/05 04:15:26;;;;;;;;;;;;;;;9.66;68.89;98880.22;5099762;27;19993;-63
2023/10/05 04:18:15;;;;;;;;;;;;;;;9.75;68.62;98889.41;5108588;27;19947;-63
2023/10/05 04:21:04;;;;;;;;;;;;;;;9.77;68.67;98892.63;5095701;28;19924;-62
2023/10/05 04:23:52;;;;;;;;;;;;;;;9.72;68.63;98884.53;5103694;27;19931;-63
2023/10/05 04:26:44;;;;;;;;;;;;;;;9.73;68.65;98888.03;5113700;27;20424;-63
2023/10/05 04:29:32;;;;;;;;;;;;;;;9.84;68.15;98882.25;5107201;27;19923;-63
2023/10/05 04:32:22;;;;;;;;;;;;;;;9.94;68.05;98871.31;5105834;27;19935;-63
2023/10/05 04:35:20;;;;;;;;;;;;;;;10.04;67.57;98877.78;5093757;28;19947;-63
2023/10/05 04:38:10;;;;;;;;;;;;;;;10.13;67.26;98876.88;5106017;28;20229;-63
2023/10/05 04:40:59;;;;;;;;;;;;;;;10.11;66.74;98881.78;5110207;28;19989;-63
2023/10/05 04:43:48;;;;;;;;;;;;;;;10.18;66.55;98873.31;5105379;28;19924;-63
2023/10/05 04:46:36;;;;;;;;;;;;;;;10.18;66.54;98876.84;5109685;28;19924;-63
2023/10/05 04:49:27;;;;;;;;;;;;;;;10.17;66.67;98879.81;5105761;28;20384;-63
2023/10/05 04:52:22;;;;;;;;;;;;;;;10.20;66.56;98884.69;5102755;28;20262;-63
2023/10/05 04:55:18;;;;;;;;;;;;;;;10.19;66.54;98883.09;5102090;27;20045;-63
2023/10/05 04:58:21;;;;;;;;;;;;;;;10.19;66.48;98891.22;5108036;27;20014;-63
2023/10/05 05:01:28;;;;;;;;;;;;;;;10.17;66.47;98891.53;5099639;27;19932;-63
2023/10/05 05:04:27;;;;;;;;;;;;;;;10.24;66.39;98888.50;5105296;27;19923;-63
2023/10/05 05:07:19;;;;;;;;;;;;;;;10.20;66.58;98884.69;5105206;27;19935;-63
2023/10/05 05:10:11;;;;;;;;;;;;;;;10.26;66.51;98889.00;5094706;27;19927;-63
2023/10/05 05:13:00;;;;;;;;;;;;;;;10.25;66.65;98881.16;5105564;27;19928;-63
2023/10/05 05:15:48;;;;;;;;;;;;;;;10.06;66.88;98873.66;5108852;27;20014;-63
2023/10/05 05:18:38;;;;;;;;;;;;;;;10.03;67.34;98881.59;5110989;27;19923;-63
2023/10/05 05:21:26;;;;;;;;;;;;;;;10.00;67.19;98876.72;5098540;27;20424;-63
2023/10/05 05:24:16;;;;;;;;;;;;;;;9.91;67.51;98880.06;5100960;27;19923;-63
2023/10/05 05:27:04;;;;;;;;;;;;;;;9.89;67.38;98884.13;5101159;27;19928;-62
2023/10/05 05:29:53;;;;;;;;;;;;;;;9.84;67.81;98876.81;5101206;27;19946;-63
2023/10/05 05:32:43;;;;;;;;;;;;;;;9.84;67.79;98871.41;5111553;27;19923;-62
2023/10/05 05:35:32;;;;;;;;;;;;;;;9.74;68.16;98882.31;5102505;27;19924;-63
2023/10/05 05:38:20;;;;;;;;;;;;;;;9.73;68.15;98878.00;5107594;28;19991;-63
2023/10/05 05:41:15;;;;;;;;;;;;;;;9.71;68.75;98867.44;5105729;27;19980;-62
2023/10/05 05:44:06;;;;;;;;;;;;;;;9.83;68.50;98868.97;5109741;27;19927;-62
2023/10/05 05:46:59;;;;;;;;;;;;;;;9.70;68.85;98873.97;5098945;27;19931;-62
2023/10/05 05:49:47;;;;;;;;;;;;;;;9.62;69.57;98865.59;5107761;27;19927;-62
2023/10/05 05:52:35;;;;;;;;;;;;;;;9.58;69.77;98872.66;5112934;27;19927;-62
2023/10/05 05:55:23;;;;;;;;;;;;;;;9.58;69.99;98870.75;5104265;27;19931;-62
2023/10/05 05:58:14;;;;;;;;;;;;;;;9.70;69.53;98875.88;5106449;27;19923;-62
2023/10/05 06:01:03;;;;;;;;;;;;;;;9.85;69.16;98873.00;5086336;27;20305;-62
2023/10/05 06:03:52;;;;;;;;;;;;;;;9.97;68.60;98870.78;5105344;27;20013;-62
2023/10/05 06:06:40;;;;;;;;;;;;;;;10.09;68.60;98872.31;5103815;28;19924;-62
2023/10/05 06:09:33;;;;;;;;;;;;;;;10.19;68.17;98880.38;5105692;27;19959;-62
2023/10/05 06:12:22;;;;;;;;;;;;;;;10.24;68.00;98877.63;5107372;27;19923;-62
2023/10/05 06:15:13;;;;;;;;;;;;;;;10.32;68.02;98876.19;5106806;27;20019;-61
2023/10/05 06:18:02;;;;;;;;;;;;;;;10.38;67.92;98888.63;5100984;27;19987;-62
2023/10/05 06:20:50;;;;;;;;;;;;;;;10.37;67.88;98901.41;5117143;27;19927;-62
2023/10/05 06:23:38;;;;;;;;;;;;;;;10.44;67.66;98882.88;5113388;27;20665;-62
2023/10/05 06:26:26;;;;;;;;;;;;;;;10.53;67.64;98874.09;5113704;27;19935;-62
2023/10/05 06:29:14;;;;;;;;;;;;;;;10.55;67.82;98866.50;5102141;27;19935;-61
2023/10/05 06:32:04;;;;;;;;;;;;;;;10.62;67.90;98847.94;5111091;27;19928;-62
2023/10/05 06:34:52;;;;;;;;;;;;;;;10.65;68.02;98852.75;5110191;27;19931;-62
2023/10/05 06:37:41;;;;;;;;;;;;;;;10.66;67.72;98846.25;5097506;27;19970;-62
2023/10/05 06:40:29;;;;;;;;;;;;;;;10.67;67.62;98853.31;5110326;27;19949;-63
2023/10/05 06:43:17;;;;;;;;;;;;;;;10.72;67.28;98856.78;5106854;27;20506;-73
2023/10/05 06:46:09;;;;;;;;;;;;;;;10.68;67.64;98863.06;5101722;28;19931;-68
2023/10/05 06:48:59;;;;;;;;;;;;;;;10.75;67.53;98860.81;5111137;28;20083;-63
2023/10/05 06:51:47;;;;;;;;;;;;;;;10.77;67.50;98874.94;5105879;27;20380;-62
2023/10/05 06:54:37;;;;;;;;;;;;;;;10.77;67.59;98883.09;5107666;27;19923;-64
2023/10/05 06:57:25;;;;;;;;;;;;;;;10.77;67.86;98877.66;5107355;27;20022;-62
2023/10/05 07:00:16;;;;;;;;;;;;;;;10.84;68.04;98883.53;5095650;27;20065;-62
2023/10/05 07:03:06;;;;;;;;;;;;;;;10.90;68.12;98889.75;5107690;27;20010;-64
2023/10/05 07:05:58;;;;;;;;;;;;;;;11.01;68.02;98897.47;5110666;27;21781;-62
2023/10/05 07:08:47;;;;;;;;;;;;;;;11.05;68.51;98895.00;5105284;27;19932;-62
2023/10/05 07:11:36;;;;;;;;;;;;;;;11.11;68.46;98901.19;5098596;27;19924;-62
2023/10/05 07:14:25;;;;;;;;;;;;;;;11.11;68.78;98903.91;5095485;28;19981;-63
2023/10/05 07:17:14;;;;;;;;;;;;;;;11.13;68.47;98918.84;5106059;27;19924;-62
2023/10/05 07:20:04;;;;;;;;;;;;;;;11.22;68.34;98917.09;5107946;27;19978;-62
2023/10/05 07:22:54;;;;;;;;;;;;;;;11.34;68.43;98924.03;5100600;28;20403;-62
2023/10/05 07:25:43;;;;;;;;;;;;;;;11.44;68.34;98927.41;5104582;27;19935;-62
2023/10/05 07:28:31;;;;;;;;;;;;;;;11.55;68.46;98917.22;5112498;28;19932;-62
2023/10/05 07:31:19;;;;;;;;;;;;;;;11.63;68.12;98913.03;5103402;28;20320;-62
2023/10/05 07:34:08;;;;;;;;;;;;;;;11.65;68.07;98919.78;5108436;28;19955;-62
2023/10/05 07:36:57;;;;;;;;;;;;;;;11.71;67.94;98924.06;5102599;28;19949;-62
2023/10/05 07:39:47;;;;;;;;;;;;;;;11.74;67.73;98933.56;5110936;28;19927;-62
2023/10/05 07:42:37;;;;;;;;;;;;;;;11.76;67.47;98931.34;5108440;28;20389;-63
2023/10/05 07:45:25;;;;;;;;;;;;;;;11.77;67.70;98928.34;5099077;28;19973;-65
2023/10/05 07:48:13;;;;;;;;;;;;;;;11.84;67.62;98930.72;5107059;28;20081;-62
2023/10/05 07:51:01;;;;;;;;;;;;;;;11.89;67.10;98929.84;5104956;27;19935;-62
2023/10/05 07:53:49;;;;;;;;;;;;;;;11.92;67.31;98935.50;5110947;27;19924;-62
2023/10/05 07:56:39;;;;;;;;;;;;;;;11.97;67.78;98932.69;5116311;27;19935;-62
2023/10/05 07:59:27;;;;;;;;;;;;;;;11.97;67.81;98938.16;5098665;28;20021;-63
2023/10/05 08:02:15;;;;;;;;;;;;;;;12.03;67.73;98934.25;5104870;27;19924;-63
2023/10/05 08:05:04;;;;;;;;;;;;;;;12.11;67.64;98940.94;5101938;28;20012;-63
2023/10/05 08:07:54;;;;;;;;;;;;;;;12.14;67.28;98928.63;5089675;28;19945;-63
2023/10/05 08:10:42;;;;;;;;;;;;;;;12.18;67.35;98935.91;5100810;28;20046;-63
2023/10/05 08:13:33;;;;;;;;;;;;;;;12.24;67.40;98933.94;5103694;28;19959;-63
2023/10/05 08:16:22;;;;;;;;;;;;;;;12.30;67.26;98938.19;5104646;28;20494;-62
2023/10/05 08:19:10;;;;;;;;;;;;;;;12.41;67.24;98936.94;5093280;28;19949;-63
2023/10/05 08:21:58;;;;;;;;;;;;;;;12.47;67.22;98951.28;5111525;27;20042;-63
2023/10/05 08:24:48;;;;;;;;;;;;;;;12.57;67.27;98956.56;5100764;28;20308;-63
2023/10/05 08:27:38;;;;;;;;;;;;;;;12.64;66.93;98945.28;5098947;27;19936;-63
2023/10/05 08:30:33;;;;;;;;;;;;;;;12.66;67.15;98932.94;5101039;28;20456;-63
2023/10/05 08:33:21;;;;;;;;;;;;;;;12.73;66.97;98940.72;5101318;28;19932;-64
2023/10/05 08:36:11;;;;;;;;;;;;;;;12.77;66.69;98950.72;5103640;27;20877;-64
2023/10/05 08:39:00;;;;;;;;;;;;;;;12.82;66.84;98952.56;5106180;27;19992;-64
2023/10/05 08:41:48;;;;;;;;;;;;;;;12.89;66.29;98933.91;5104652;27;19927;-66
2023/10/05 08:44:38;;;;;;;;;;;;;;;12.94;66.10;98950.16;5105554;28;19986;-63
2023/10/05 08:47:28;;;;;;;;;;;;;;;13.04;66.04;98947.22;5105440;27;19964;-64
2023/10/05 08:50:21;;;;;;;;;;;;;;;13.12;66.04;98940.28;5097935;28;20445;-64
2023/10/05 08:53:13;;;;;;;;;;;;;;;13.18;66.03;98943.72;5106227;28;19928;-64
2023/10/05 08:56:01;;;;;;;;;;;;;;;13.27;65.73;98939.22;5108085;27;19935;-64
2023/10/05 08:58:49;;;;;;;;;;;;;;;13.35;65.66;98950.22;5099336;27;20054;-64
2023/10/05 09:01:37;;;;;;;;;;;;;;;13.39;65.29;98938.69;5102972;28;20007;-64
2023/10/05 09:04:43;;;;;;;;;;;;;;;13.45;65.34;98935.53;5105553;27;19924;-63
2023/10/05 09:07:35;;;;;;;;;;;;;;;13.52;65.53;98938.66;5104723;28;19935;-64
2023/10/05 09:10:26;;;;;;;;;;;;;;;13.58;65.13;98944.81;5100978;27;20739;-64
2023/10/05 09:13:16;;;;;;;;;;;;;;;13.61;65.24;98941.50;5106937;27;19924;-64
2023/10/05 09:16:06;;;;;;;;;;;;;;;13.67;65.31;98947.66;5100446;28;19924;-65
2023/10/05 09:18:55;;;;;;;;;;;;;;;13.74;65.31;98950.75;5096570;28;20301;-65
2023/10/05 09:21:45;;;;;;;;;;;;;;;13.79;64.96;98947.91;5099693;28;20459;-64
2023/10/05 09:24:33;;;;;;;;;;;;;;;13.87;64.75;98952.66;5104723;27;20054;-64
2023/10/05 09:27:26;;;;;;;;;;;;;;;13.94;64.03;98953.06;5103011;28;19927;-63
2023/10/05 09:30:15;;;;;;;;;;;;;;;13.98;63.57;98943.13;5090389;27;20505;-64
2023/10/05 09:33:07;;;;;;;;;;;;;;;14.06;63.27;98952.50;5095986;28;19932;-64
2023/10/05 09:36:01;;;;;;;;;;;;;;;14.13;63.19;98940.03;5106129;28;19938;-64
2023/10/05 09:38:54;;;;;;;;;;;;;;;14.20;63.14;98952.47;5099022;28;19924;-65
2023/10/05 09:41:46;;;;;;;;;;;;;;;14.26;62.98;98951.22;5104218;27;19924;-63
2023/10/05 09:44:36;;;;;;;;;;;;;;;14.31;62.77;98945.63;5107299;27;19923;-64
2023/10/05 09:47:26;;;;;;;;;;;;;;;14.33;62.05;98940.69;5103968;28;19923;-63
2023/10/05 09:50:15;;;;;;;;;;;;;;;14.35;61.12;98938.44;5100318;27;19925;-64
2023/10/05 09:53:06;;;;;;;;;;;;;;;14.35;60.98;98928.31;5106764;28;19935;-64
2023/10/05 09:55:59;;;;;;;;;;;;;;;14.36;60.73;98920.91;5120263;27;20036;-64
2023/10/05 09:58:47;;;;;;;;;;;;;;;14.39;61.13;98907.44;5120493;27;19929;-64
2023/10/05 10:01:37;;;;;;;;;;;;;;;14.44;60.22;98924.84;5108963;27;20384;-64
2023/10/05 10:04:35;;;;;;;;;;;;;;;14.47;59.26;98933.22;5105973;27;19924;-64
2023/10/05 10:07:26;;;;;;;;;;;;;;;14.50;58.50;98932.63;5105240;27;20018;-64
2023/10/05 10:10:18;;;;;;;;;;;;;;;14.53;58.64;98934.72;5109223;27;19923;-64
2023/10/05 10:13:11;;;;;;;;;;;;;;;14.56;57.99;98923.16;5108913;27;19938;-64
2023/10/05 10:16:02;;;;;;;;;;;;;;;14.58;57.56;98918.19;5108039;27;20298;-64
2023/10/05 10:18:52;;;;;;;;;;;;;;;14.63;57.70;98923.53;5109603;27;20018;-63
2023/10/05 10:21:46;;;;;;;;;;;;;;;14.70;57.63;98927.72;5102895;27;19924;-64
2023/10/05 10:24:34;;;;;;;;;;;;;;;14.77;57.62;98928.13;5106485;27;19927;-64
2023/10/05 10:27:27;;;;;;;;;;;;;;;14.85;57.04;98911.72;5101506;27;20266;-64
2023/10/05 10:30:16;;;;;;;;;;;;;;;14.95;57.24;98918.84;5101801;28;20039;-64
2023/10/05 10:33:24;;;;;;;;;;;;;;;15.01;56.80;98917.59;5093868;27;19978;-64
2023/10/05 10:36:18;;;;;;;;;;;;;;;15.11;56.24;98924.72;5100803;27;20376;-64
2023/10/05 10:39:23;;;;;;;;;;;;;;;15.15;56.45;98921.03;5103777;27;21057;-64
2023/10/05 10:42:18;;;;;;;;;;;;;;;15.13;57.15;98925.22;5104376;28;20289;-65
2023/10/05 10:45:11;;;;;;;;;;;;;;;15.10;56.64;98915.69;5098339;28;20010;-64
2023/10/05 10:48:04;;;;;;;;;;;;;;;15.09;56.73;98914.09;5094984;28;19984;-64
2023/10/05 10:50:53;;;;;;;;;;;;;;;15.09;56.94;98927.78;5101532;28;19970;-64
2023/10/05 10:53:41;;;;;;;;;;;;;;;15.09;56.77;98925.03;5106615;28;19923;-63
2023/10/05 10:56:34;;;;;;;;;;;;;;;15.11;56.66;98922.78;5101653;28;19935;-64
2023/10/05 10:59:26;;;;;;;;;;;;;;;15.13;55.35;98925.22;5106915;28;19927;-64
2023/10/05 11:02:19;;;;;;;;;;;;;;;15.15;55.52;98915.56;5099844;27;20018;-64
2023/10/05 11:05:16;;;;;;;;;;;;;;;15.15;54.87;98910.09;5099121;27;19931;-64
2023/10/05 11:08:07;;;;;;;;;;;;;;;15.17;55.33;98915.22;5100186;28;19934;-64
2023/10/05 11:11:00;;;;;;;;;;;;;;;15.23;55.57;98907.69;5098102;28;19932;-64
2023/10/05 11:13:54;;;;;;;;;;;;;;;15.28;55.04;98905.59;5101129;28;19924;-64
2023/10/05 11:16:43;;;;;;;;;;;;;;;15.33;54.61;98907.38;5092283;28;19924;-64
2023/10/05 11:19:36;;;;;;;;;;;;;;;15.34;54.79;98909.00;5097877;28;19952;-64
2023/10/05 11:22:28;;;;;;;;;;;;;;;15.35;54.90;98913.38;5097500;28;19932;-64
2023/10/05 11:25:23;;;;;;;;;;;;;;;15.39;55.34;98908.84;5099963;28;19928;-64
2023/10/05 11:28:18;;;;;;;;;;;;;;;15.44;55.11;98909.50;5098070;28;19931;-64
2023/10/05 11:31:07;;;;;;;;;;;;;;;15.44;54.37;98904.03;5097992;28;19939;-64
2023/10/05 11:34:00;;;;;;;;;;;;;;;15.43;54.39;98901.63;5090585;28;20188;-64
2023/10/05 11:37:15;;;;;;;;;;;;;;;15.43;54.43;98912.56;5099061;28;19932;-64
2023/10/05 11:40:06;;;;;;;;;;;;;;;15.44;54.56;98915.00;5097527;28;20325;-64
2023/10/05 11:42:56;;;;;;;;;;;;;;;15.42;54.02;98911.78;5100611;28;19923;-64
2023/10/05 11:45:58;;;;;;;;;;;;;;;15.40;54.24;98914.03;5098276;28;19978;-64
2023/10/05 11:48:50;;;;;;;;;;;;;;;15.40;54.29;98910.50;5098450;28;19924;-64
2023/10/05 11:51:41;;;;;;;;;;;;;;;15.41;54.40;98920.31;5105980;28;19923;-64
2023/10/05 11:54:30;;;;;;;;;;;;;;;15.42;53.22;98921.91;5098954;28;19928;-64
2023/10/05 11:57:20;;;;;;;;;;;;;;;15.39;53.47;98926.13;5099215;28;20311;-64
2023/10/05 12:00:09;;;;;;;;;;;;;;;15.38;54.31;98919.00;5092870;28;20049;-64
2023/10/05 12:02:58;;;;;;;;;;;;;;;15.39;53.63;98922.53;5097778;28;20292;-64
2023/10/05 12:05:46;;;;;;;;;;;;;;;15.39;54.08;98923.38;5100856;28;19924;-64
2023/10/05 12:08:35;;;;;;;;;;;;;;;15.42;53.90;98917.25;5101255;28;20763;-64
2023/10/05 12:11:24;;;;;;;;;;;;;;;15.45;53.39;98918.56;5101094;28;20028;-64
2023/10/05 12:14:16;;;;;;;;;;;;;;;15.45;52.45;98918.56;5087625;28;19932;-64
2023/10/05 12:17:05;;;;;;;;;;;;;;;15.42;52.85;98910.97;5098085;28;20746;-64
2023/10/05 12:19:54;;;;;;;;;;;;;;;15.41;52.64;98909.34;5098537;28;19936;-64
2023/10/05 12:22:43;;;;;;;;;;;;;;;15.41;52.89;98909.34;5101751;28;19931;-64
2023/10/05 12:25:33;;;;;;;;;;;;;;;15.41;52.92;98914.84;5092945;28;19928;-64
2023/10/05 12:28:23;;;;;;;;;;;;;;;15.40;52.80;98900.34;5099135;28;19931;-63
2023/10/05 12:31:12;;;;;;;;;;;;;;;15.42;52.73;98900.00;5086624;28;19931;-64
2023/10/05 12:34:00;;;;;;;;;;;;;;;15.42;52.18;98902.75;5095722;28;20433;-64
2023/10/05 12:36:54;;;;;;;;;;;;;;;15.44;51.87;98898.56;5098230;28;19924;-64
2023/10/05 12:39:43;;;;;;;;;;;;;;;15.43;52.14;98891.47;5100906;28;20038;-64
2023/10/05 12:42:31;;;;;;;;;;;;;;;15.42;51.94;98897.28;5098729;27;20473;-64
2023/10/05 12:45:22;;;;;;;;;;;;;;;15.42;52.16;98911.78;5097944;27;19982;-64
2023/10/05 12:48:12;;;;;;;;;;;;;;;15.45;53.23;98902.13;5102439;28;19924;-64
2023/10/05 12:51:01;;;;;;;;;;;;;;;15.46;52.34;98911.94;5103038;28;19923;-64
2023/10/05 12:53:49;;;;;;;;;;;;;;;15.48;53.57;98908.88;5098344;27;19932;-64
2023/10/05 12:56:40;;;;;;;;;;;;;;;15.48;52.92;98908.88;5096743;27;20285;-63
2023/10/05 12:59:28;;;;;;;;;;;;;;;15.49;53.31;98915.97;5102976;27;20368;-63
2023/10/05 13:02:17;;;;;;;;;;;;;;;15.49;53.25;98915.97;5104765;28;19939;-63
2023/10/05 13:05:07;;;;;;;;;;;;;;;15.50;53.78;98925.78;5103819;27;20008;-64
2023/10/05 13:08:13;;;;;;;;;;;;;;;15.48;53.42;98922.56;5100254;28;19998;-63
2023/10/05 13:11:03;;;;;;;;;;;;;;;15.48;53.63;98922.56;5104729;28;19924;-64
2023/10/05 13:13:52;;;;;;;;;;;;;;;15.49;53.49;98921.44;5101753;28;20016;-63
2023/10/05 13:16:44;;;;;;;;;;;;;;;15.49;54.10;98922.25;5101782;28;19927;-64
2023/10/05 13:19:32;;;;;;;;;;;;;;;15.47;53.83;98935.47;5087743;28;19976;-64
2023/10/05 13:22:25;;;;;;;;;;;;;;;15.44;53.27;98931.41;5100923;28;19928;-64
2023/10/05 13:25:13;;;;;;;;;;;;;;;15.44;53.73;98916.91;5098487;28;19924;-63
2023/10/05 13:28:03;;;;;;;;;;;;;;;15.46;53.90;98917.44;5099843;28;19950;-64
2023/10/05 13:30:51;;;;;;;;;;;;;;;15.50;54.38;98917.56;5104566;27;20038;-64
2023/10/05 13:33:40;;;;;;;;;;;;;;;15.47;53.17;98916.28;5108433;27;19928;-63
2023/10/05 13:36:30;;;;;;;;;;;;;;;15.45;53.41;98910.34;5101806;28;19923;-63
2023/10/05 13:39:21;;;;;;;;;;;;;;;15.47;53.54;98913.56;5095799;28;19939;-63
2023/10/05 13:42:10;;;;;;;;;;;;;;;15.46;53.29;98904.53;5102893;28;19924;-64
2023/10/05 13:45:04;;;;;;;;;;;;;;;15.46;53.63;98898.25;5107597;28;19923;-64
2023/10/05 13:47:53;;;;;;;;;;;;;;;15.44;53.47;98893.06;5108722;28;20066;-64
2023/10/05 13:50:41;;;;;;;;;;;;;;;15.44;53.59;98887.59;5106115;28;20023;-63
2023/10/05 13:53:34;;;;;;;;;;;;;;;15.43;53.72;98891.47;5102331;28;19924;-64
2023/10/05 13:56:27;;;;;;;;;;;;;;;15.40;53.96;98902.28;5094359;28;19924;-63
2023/10/05 13:59:21;;;;;;;;;;;;;;;15.34;54.00;98892.56;5108461;28;20304;-63
2023/10/05 14:02:09;;;;;;;;;;;;;;;15.31;54.02;98882.28;5107506;27;19931;-63
2023/10/05 14:04:57;;;;;;;;;;;;;;;15.28;53.82;98882.91;5090708;28;19924;-64
2023/10/05 14:07:51;;;;;;;;;;;;;;;15.29;54.36;98884.53;5107987;28;19927;-63
2023/10/05 14:10:39;;;;;;;;;;;;;;;15.27;54.58;98881.28;5110156;28;19928;-64
2023/10/05 14:13:29;;;;;;;;;;;;;;;15.28;54.81;98888.38;5103361;28;19928;-64
2023/10/05 14:16:19;;;;;;;;;;;;;;;15.28;54.94;98888.38;5107264;28;20470;-63
2023/10/05 14:19:09;;;;;;;;;;;;;;;15.28;55.49;98886.44;5105773;28;19935;-63
2023/10/05 14:21:59;;;;;;;;;;;;;;;15.27;54.86;98900.44;5114900;27;19924;-64
2023/10/05 14:24:48;;;;;;;;;;;;;;;15.24;55.46;98892.91;5100446;28;19932;-63
2023/10/05 14:27:36;;;;;;;;;;;;;;;15.24;55.26;98887.41;5089120;28;20013;-64
2023/10/05 14:30:37;;;;;;;;;;;;;;;15.26;55.34;98882.41;5107067;27;19931;-63
2023/10/05 14:33:26;;;;;;;;;;;;;;;15.25;55.11;98889.03;5093532;28;19928;-65
2023/10/05 14:36:15;;;;;;;;;;;;;;;15.25;55.45;98883.56;5103515;27;20436;-64
2023/10/05 14:39:06;;;;;;;;;;;;;;;15.25;55.54;98887.09;5092529;28;19924;-63
2023/10/05 14:41:55;;;;;;;;;;;;;;;15.24;55.38;98871.81;5107390;27;19935;-63
2023/10/05 14:44:44;;;;;;;;;;;;;;;15.22;55.22;98865.81;5102377;28;19924;-66
2023/10/05 14:47:35;;;;;;;;;;;;;;;15.22;55.68;98863.09;5105099;27;19928;-63
2023/10/05 14:50:26;;;;;;;;;;;;;;;15.21;55.68;98864.22;5113202;27;19923;-65
2023/10/05 14:53:14;;;;;;;;;;;;;;;15.23;55.83;98856.47;5095952;28;19989;-64